Terminal Aerodrome Forecast
Issued by NWS

Home | Current Version | Previous Version | Text Only | Print | Product List | Glossary On
Versions: 1 2 3 4 5 6 7 8 9 10 11 12
000
FTAK31 PAJN 271724
TAFAKT
TAF
PAKT 271724Z 2718/2818 VRB03KT P6SM -SHRA SCT025 BKN040 OVC060
      TEMPO 2718/2722 BKN025 OVC050
     FM272200 VRB05KT P6SM -SHRA VCTS SCT025CB OVC040
     FM280300 14007KT P6SM VCSH SCT010 BKN025 OVC050
     FM281300 14007KT P6SM SCT025 BKN050
      AMD LTD TO CLD VIS AND WIND 2806/2815=

USA.gov is the U.S. government's official web portal to all federal, state and local government web resources and services.